Aviation Digital Data Service (ADDS)

Output produced by METARs form (2341 UTC 23 October 2019)
found at http://www.aviationweather.gov/metar/data/
 
METAR text: KSDF 232256Z 18008KT 10SM FEW200 SCT250 18/M01 A3013 RMK AO2 SLP201 T01781006
Conditions at: KSDF (LOUISVILLE , KY, US) observed 2256 UTC 23 October 2019
Temperature: 17.8°C (64°F)
Dewpoint: -0.6°C (31°F) [RH = 29%]
Pressure (altimeter): 30.13 inches Hg (1020.4 mb)
[Sea-level pressure: 1020.1 mb]
Winds: from the S (180 degrees) at 9 MPH (8 knots; 4.1 m/s)
Visibility: 10 or more miles (16+ km)
Ceiling: at least 12,000 feet AGL
Clouds: few clouds at 20000 feet AGL
scattered clouds at 25000 feet AGL
Weather: no significant weather observed at this time

METAR text: KSDF 232156Z 19008KT 10SM FEW005 SCT250 19/M01 A3011 RMK AO2 SLP197 FU FEW005 E-S DRFTG NE T01941011
Conditions at: KSDF (LOUISVILLE , KY, US) observed 2156 UTC 23 October 2019
Temperature: 19.4°C (67°F)
Dewpoint: -1.1°C (30°F) [RH = 25%]
Pressure (altimeter): 30.11 inches Hg (1019.7 mb)
[Sea-level pressure: 1019.7 mb]
Winds: from the S (190 degrees) at 9 MPH (8 knots; 4.1 m/s)
Visibility: 10 or more miles (16+ km)
Ceiling: at least 12,000 feet AGL
Clouds: few clouds at 500 feet AGL
scattered clouds at 25000 feet AGL
Weather: no significant weather observed at this time

METAR text: KSDF 232056Z 20010KT 10SM FEW005 BKN250 19/M01 A3010 RMK AO2 SLP192 FU FEW005 S T01941011 56016
Conditions at: KSDF (LOUISVILLE , KY, US) observed 2056 UTC 23 October 2019
Temperature: 19.4°C (67°F)
Dewpoint: -1.1°C (30°F) [RH = 25%]
Pressure (altimeter): 30.10 inches Hg (1019.4 mb)
[Sea-level pressure: 1019.2 mb]
Winds: from the SSW (200 degrees) at 12 MPH (10 knots; 5.1 m/s)
Visibility: 10 or more miles (16+ km)
Ceiling: 25000 feet AGL
Clouds: few clouds at 500 feet AGL
broken clouds at 25000 feet AGL
Weather: no significant weather observed at this time

METAR text: KSDF 231956Z 17010G15KT 10SM SCT250 19/M02 A3011 RMK AO2 SLP194 T01941017
Conditions at: KSDF (LOUISVILLE , KY, US) observed 1956 UTC 23 October 2019
Temperature: 19.4°C (67°F)
Dewpoint: -1.7°C (29°F) [RH = 24%]
Pressure (altimeter): 30.11 inches Hg (1019.7 mb)
[Sea-level pressure: 1019.4 mb]
Winds: from the S (170 degrees) at 12 MPH (10 knots; 5.1 m/s)
gusting to 17 MPH (15 knots; 7.7 m/s)
Visibility: 10 or more miles (16+ km)
Ceiling: at least 12,000 feet AGL
Clouds: scattered clouds at 25000 feet AGL
Weather: no significant weather observed at this time

METAR text: KSDF 231856Z 19009KT 10SM FEW250 19/M01 A3013 RMK AO2 SLP200 T01941011
Conditions at: KSDF (LOUISVILLE , KY, US) observed 1856 UTC 23 October 2019
Temperature: 19.4°C (67°F)
Dewpoint: -1.1°C (30°F) [RH = 25%]
Pressure (altimeter): 30.13 inches Hg (1020.4 mb)
[Sea-level pressure: 1020.0 mb]
Winds: from the S (190 degrees) at 10 MPH (9 knots; 4.6 m/s)
Visibility: 10 or more miles (16+ km)
Ceiling: at least 12,000 feet AGL
Clouds: few clouds at 25000 feet AGL
Weather: no significant weather observed at this time

METAR text: KSDF 231756Z 22009KT 10SM FEW250 18/M01 A3015 RMK AO2 SLP209 T01831011 10189 20056 58006
Conditions at: KSDF (LOUISVILLE , KY, US) observed 1756 UTC 23 October 2019
Temperature: 18.3°C (65°F)
Dewpoint: -1.1°C (30°F) [RH = 27%]
Pressure (altimeter): 30.15 inches Hg (1021.1 mb)
[Sea-level pressure: 1020.9 mb]
Winds: from the SW (220 degrees) at 10 MPH (9 knots; 4.6 m/s)
Visibility: 10 or more miles (16+ km)
Ceiling: at least 12,000 feet AGL
Clouds: few clouds at 25000 feet AGL
Weather: no significant weather observed at this time

METAR text: KSDF 231656Z 21010G16KT 10SM FEW180 18/M01 A3017 RMK AO2 SLP215 T01781006
Conditions at: KSDF (LOUISVILLE , KY, US) observed 1656 UTC 23 October 2019
Temperature: 17.8°C (64°F)
Dewpoint: -0.6°C (31°F) [RH = 29%]
Pressure (altimeter): 30.17 inches Hg (1021.8 mb)
[Sea-level pressure: 1021.5 mb]
Winds: from the SSW (210 degrees) at 12 MPH (10 knots; 5.1 m/s)
gusting to 18 MPH (16 knots; 8.2 m/s)
Visibility: 10 or more miles (16+ km)
Ceiling: at least 12,000 feet AGL
Clouds: few clouds at 18000 feet AGL
Weather: no significant weather observed at this time

METAR text: KSDF 231556Z 20009KT 10SM CLR 16/M01 A3017 RMK AO2 SLP217 T01561011
Conditions at: KSDF (LOUISVILLE , KY, US) observed 1556 UTC 23 October 2019
Temperature: 15.6°C (60°F)
Dewpoint: -1.1°C (30°F) [RH = 32%]
Pressure (altimeter): 30.17 inches Hg (1021.8 mb)
[Sea-level pressure: 1021.7 mb]
Winds: from the SSW (200 degrees) at 10 MPH (9 knots; 4.6 m/s)
Visibility: 10 or more miles (16+ km)
Ceiling: at least 12,000 feet AGL
Clouds: sky clear below 12,000 feet AGL
Weather: no significant weather observed at this time

METAR text: KSDF 231456Z 21008KT 10SM CLR 14/00 A3017 RMK AO2 SLP216 T01390000 51022
Conditions at: KSDF (LOUISVILLE , KY, US) observed 1456 UTC 23 October 2019
Temperature: 13.9°C (57°F)
Dewpoint: 0.0°C (32°F) [RH = 38%]
Pressure (altimeter): 30.17 inches Hg (1021.8 mb)
[Sea-level pressure: 1021.6 mb]
Winds: from the SSW (210 degrees) at 9 MPH (8 knots; 4.1 m/s)
Visibility: 10 or more miles (16+ km)
Ceiling: at least 12,000 feet AGL
Clouds: sky clear below 12,000 feet AGL
Weather: no significant weather observed at this time

METAR text: KSDF 231356Z 18007KT 10SM CLR 10/01 A3015 RMK AO2 SLP211 T01000011
Conditions at: KSDF (LOUISVILLE , KY, US) observed 1356 UTC 23 October 2019
Temperature: 10.0°C (50°F)
Dewpoint: 1.1°C (34°F) [RH = 54%]
Pressure (altimeter): 30.15 inches Hg (1021.1 mb)
[Sea-level pressure: 1021.1 mb]
Winds: from the S (180 degrees) at 8 MPH (7 knots; 3.6 m/s)
Visibility: 10 or more miles (16+ km)
Ceiling: at least 12,000 feet AGL
Clouds: sky clear below 12,000 feet AGL
Weather: no significant weather observed at this time

METAR text: KSDF 231256Z 19004KT 10SM CLR 08/01 A3014 RMK AO2 SLP206 T00780006
Conditions at: KSDF (LOUISVILLE , KY, US) observed 1256 UTC 23 October 2019
Temperature: 7.8°C (46°F)
Dewpoint: 0.6°C (33°F) [RH = 60%]
Pressure (altimeter): 30.14 inches Hg (1020.7 mb)
[Sea-level pressure: 1020.6 mb]
Winds: from the S (190 degrees) at 5 MPH (4 knots; 2.1 m/s)
Visibility: 10 or more miles (16+ km)
Ceiling: at least 12,000 feet AGL
Clouds: sky clear below 12,000 feet AGL
Weather: no significant weather observed at this time

METAR text: KSDF 231156Z 14003KT 10SM CLR 06/01 A3010 RMK AO2 SLP194 T00560006 10106 20056 51014
Conditions at: KSDF (LOUISVILLE , KY, US) observed 1156 UTC 23 October 2019
Temperature: 5.6°C (42°F)
Dewpoint: 0.6°C (33°F) [RH = 70%]
Pressure (altimeter): 30.10 inches Hg (1019.4 mb)
[Sea-level pressure: 1019.4 mb]
Winds: from the SE (140 degrees) at 3 MPH (3 knots; 1.5 m/s)
Visibility: 10 or more miles (16+ km)
Ceiling: at least 12,000 feet AGL
Clouds: sky clear below 12,000 feet AGL
Weather: no significant weather observed at this time

METAR text: KSDF 231056Z 17003KT 10SM CLR 07/01 A3010 RMK AO2 SLP191 T00720006
Conditions at: KSDF (LOUISVILLE , KY, US) observed 1056 UTC 23 October 2019
Temperature: 7.2°C (45°F)
Dewpoint: 0.6°C (33°F) [RH = 63%]
Pressure (altimeter): 30.10 inches Hg (1019.4 mb)
[Sea-level pressure: 1019.1 mb]
Winds: from the S (170 degrees) at 3 MPH (3 knots; 1.5 m/s)
Visibility: 10 or more miles (16+ km)
Ceiling: at least 12,000 feet AGL
Clouds: sky clear below 12,000 feet AGL
Weather: no significant weather observed at this time

METAR text: KSDF 230956Z 21005KT 10SM CLR 07/01 A3008 RMK AO2 SLP187 T00720006
Conditions at: KSDF (LOUISVILLE , KY, US) observed 0956 UTC 23 October 2019
Temperature: 7.2°C (45°F)
Dewpoint: 0.6°C (33°F) [RH = 63%]
Pressure (altimeter): 30.08 inches Hg (1018.7 mb)
[Sea-level pressure: 1018.7 mb]
Winds: from the SSW (210 degrees) at 6 MPH (5 knots; 2.6 m/s)
Visibility: 10 or more miles (16+ km)
Ceiling: at least 12,000 feet AGL
Clouds: sky clear below 12,000 feet AGL
Weather: no significant weather observed at this time

METAR text: KSDF 230856Z 21007KT 10SM CLR 09/01 A3006 RMK AO2 SLP179 T00890011 51014
Conditions at: KSDF (LOUISVILLE , KY, US) observed 0856 UTC 23 October 2019
Temperature: 8.9°C (48°F)
Dewpoint: 1.1°C (34°F) [RH = 58%]
Pressure (altimeter): 30.06 inches Hg (1018.0 mb)
[Sea-level pressure: 1017.9 mb]
Winds: from the SSW (210 degrees) at 8 MPH (7 knots; 3.6 m/s)
Visibility: 10 or more miles (16+ km)
Ceiling: at least 12,000 feet AGL
Clouds: sky clear below 12,000 feet AGL
Weather: no significant weather observed at this time

METAR text: KSDF 230756Z 23008KT 10SM CLR 10/01 A3006 RMK AO2 SLP176 T01000006
Conditions at: KSDF (LOUISVILLE , KY, US) observed 0756 UTC 23 October 2019
Temperature: 10.0°C (50°F)
Dewpoint: 0.6°C (33°F) [RH = 52%]
Pressure (altimeter): 30.06 inches Hg (1018.0 mb)
[Sea-level pressure: 1017.6 mb]
Winds: from the SW (230 degrees) at 9 MPH (8 knots; 4.1 m/s)
Visibility: 10 or more miles (16+ km)
Ceiling: at least 12,000 feet AGL
Clouds: sky clear below 12,000 feet AGL
Weather: no significant weather observed at this time

METAR text: KSDF 230656Z 24007KT 10SM CLR 10/01 A3004 RMK AO2 SLP169 T01000006
Conditions at: KSDF (LOUISVILLE , KY, US) observed 0656 UTC 23 October 2019
Temperature: 10.0°C (50°F)
Dewpoint: 0.6°C (33°F) [RH = 52%]
Pressure (altimeter): 30.04 inches Hg (1017.4 mb)
[Sea-level pressure: 1016.9 mb]
Winds: from the WSW (240 degrees) at 8 MPH (7 knots; 3.6 m/s)
Visibility: 10 or more miles (16+ km)
Ceiling: at least 12,000 feet AGL
Clouds: sky clear below 12,000 feet AGL
Weather: no significant weather observed at this time

METAR text: KSDF 230556Z 23007KT 10SM CLR 11/01 A3002 RMK AO2 SLP164 T01060011 10150 20106 53011
Conditions at: KSDF (LOUISVILLE , KY, US) observed 0556 UTC 23 October 2019
Temperature: 10.6°C (51°F)
Dewpoint: 1.1°C (34°F) [RH = 52%]
Pressure (altimeter): 30.02 inches Hg (1016.7 mb)
[Sea-level pressure: 1016.4 mb]
Winds: from the SW (230 degrees) at 8 MPH (7 knots; 3.6 m/s)
Visibility: 10 or more miles (16+ km)
Ceiling: at least 12,000 feet AGL
Clouds: sky clear below 12,000 feet AGL
Weather: no significant weather observed at this time

METAR text: KSDF 230456Z 24009KT 10SM CLR 11/01 A3000 RMK AO2 SLP159 T01110011 401890111
Conditions at: KSDF (LOUISVILLE , KY, US) observed 0456 UTC 23 October 2019
Temperature: 11.1°C (52°F)
Dewpoint: 1.1°C (34°F) [RH = 50%]
Pressure (altimeter): 30.00 inches Hg (1016.0 mb)
[Sea-level pressure: 1015.9 mb]
Winds: from the WSW (240 degrees) at 10 MPH (9 knots; 4.6 m/s)
Visibility: 10 or more miles (16+ km)
Ceiling: at least 12,000 feet AGL
Clouds: sky clear below 12,000 feet AGL
Weather: no significant weather observed at this time

METAR text: KSDF 230356Z 23010KT 10SM CLR 12/02 A3000 RMK AO2 SLP157 T01220017
Conditions at: KSDF (LOUISVILLE , KY, US) observed 0356 UTC 23 October 2019
Temperature: 12.2°C (54°F)
Dewpoint: 1.7°C (35°F) [RH = 49%]
Pressure (altimeter): 30.00 inches Hg (1016.0 mb)
[Sea-level pressure: 1015.7 mb]
Winds: from the SW (230 degrees) at 12 MPH (10 knots; 5.1 m/s)
Visibility: 10 or more miles (16+ km)
Ceiling: at least 12,000 feet AGL
Clouds: sky clear below 12,000 feet AGL
Weather: no significant weather observed at this time

METAR text: KSDF 230256Z 22009KT 10SM CLR 13/03 A2999 RMK AO2 SLP154 T01280028 53020
Conditions at: KSDF (LOUISVILLE , KY, US) observed 0256 UTC 23 October 2019
Temperature: 12.8°C (55°F)
Dewpoint: 2.8°C (37°F) [RH = 51%]
Pressure (altimeter): 29.99 inches Hg (1015.7 mb)
[Sea-level pressure: 1015.4 mb]
Winds: from the SW (220 degrees) at 10 MPH (9 knots; 4.6 m/s)
Visibility: 10 or more miles (16+ km)
Ceiling: at least 12,000 feet AGL
Clouds: sky clear below 12,000 feet AGL
Weather: no significant weather observed at this time

METAR text: KSDF 230156Z 23006KT 10SM FEW050 13/02 A2997 RMK AO2 SLP147 T01280017
Conditions at: KSDF (LOUISVILLE , KY, US) observed 0156 UTC 23 October 2019
Temperature: 12.8°C (55°F)
Dewpoint: 1.7°C (35°F) [RH = 47%]
Pressure (altimeter): 29.97 inches Hg (1015.0 mb)
[Sea-level pressure: 1014.7 mb]
Winds: from the SW (230 degrees) at 7 MPH (6 knots; 3.1 m/s)
Visibility: 10 or more miles (16+ km)
Ceiling: at least 12,000 feet AGL
Clouds: few clouds at 5000 feet AGL
Weather: no significant weather observed at this time

METAR text: KSDF 230056Z 25007KT 10SM FEW050 13/02 A2995 RMK AO2 SLP141 T01330022
Conditions at: KSDF (LOUISVILLE , KY, US) observed 0056 UTC 23 October 2019
Temperature: 13.3°C (56°F)
Dewpoint: 2.2°C (36°F) [RH = 47%]
Pressure (altimeter): 29.95 inches Hg (1014.3 mb)
[Sea-level pressure: 1014.1 mb]
Winds: from the WSW (250 degrees) at 8 MPH (7 knots; 3.6 m/s)
Visibility: 10 or more miles (16+ km)
Ceiling: at least 12,000 feet AGL
Clouds: few clouds at 5000 feet AGL
Weather: no significant weather observed at this time

METAR text: KSDF 222356Z 26012KT 10SM FEW065 15/01 A2993 RMK AO2 SLP133 T01500011 10189 20144 53022
Conditions at: KSDF (LOUISVILLE , KY, US) observed 2356 UTC 22 October 2019
Temperature: 15.0°C (59°F)
Dewpoint: 1.1°C (34°F) [RH = 39%]
Pressure (altimeter): 29.93 inches Hg (1013.6 mb)
[Sea-level pressure: 1013.3 mb]
Winds: from the W (260 degrees) at 14 MPH (12 knots; 6.2 m/s)
Visibility: 10 or more miles (16+ km)
Ceiling: at least 12,000 feet AGL
Clouds: few clouds at 6500 feet AGL
Weather: no significant weather observed at this time

METAR text: KSDF 222256Z 27012KT 10SM FEW065 FEW080 16/02 A2990 RMK AO2 SLP121 T01610017
Conditions at: KSDF (LOUISVILLE , KY, US) observed 2256 UTC 22 October 2019
Temperature: 16.1°C (61°F)
Dewpoint: 1.7°C (35°F) [RH = 38%]
Pressure (altimeter): 29.90 inches Hg (1012.6 mb)
[Sea-level pressure: 1012.1 mb]
Winds: from the W (270 degrees) at 14 MPH (12 knots; 6.2 m/s)
Visibility: 10 or more miles (16+ km)
Ceiling: at least 12,000 feet AGL
Clouds: few clouds at 6500 feet AGL
few clouds at 8000 feet AGL
Weather: no significant weather observed at this time

METAR text: KSDF 222156Z 24016G25KT 10SM SCT065 SCT080 18/02 A2988 RMK AO2 SLP115 T01780017
Conditions at: KSDF (LOUISVILLE , KY, US) observed 2156 UTC 22 October 2019
Temperature: 17.8°C (64°F)
Dewpoint: 1.7°C (35°F) [RH = 34%]
Pressure (altimeter): 29.88 inches Hg (1011.9 mb)
[Sea-level pressure: 1011.5 mb]
Winds: from the WSW (240 degrees) at 18 MPH (16 knots; 8.2 m/s)
gusting to 29 MPH (25 knots; 12.9 m/s)
Visibility: 10 or more miles (16+ km)
Ceiling: at least 12,000 feet AGL
Clouds: scattered clouds at 6500 feet AGL
scattered clouds at 8000 feet AGL
Weather: no significant weather observed at this time

METAR text: KSDF 222056Z 27013G24KT 10SM SCT060 18/03 A2986 RMK AO2 PK WND 25028/2008 SLP110 T01830028 55002
Conditions at: KSDF (LOUISVILLE , KY, US) observed 2056 UTC 22 October 2019
Temperature: 18.3°C (65°F)
Dewpoint: 2.8°C (37°F) [RH = 36%]
Pressure (altimeter): 29.86 inches Hg (1011.3 mb)
[Sea-level pressure: 1011.0 mb]
Winds: from the W (270 degrees) at 15 MPH (13 knots; 6.7 m/s)
gusting to 28 MPH (24 knots; 12.3 m/s)
Visibility: 10 or more miles (16+ km)
Ceiling: at least 12,000 feet AGL
Clouds: scattered clouds at 6000 feet AGL
Weather: no significant weather observed at this time

METAR text: KSDF 221956Z 26014G25KT 10SM SCT055 SCT060 18/03 A2986 RMK AO2 PK WND 25029/1924 SLP109 T01830033
Conditions at: KSDF (LOUISVILLE , KY, US) observed 1956 UTC 22 October 2019
Temperature: 18.3°C (65°F)
Dewpoint: 3.3°C (38°F) [RH = 37%]
Pressure (altimeter): 29.86 inches Hg (1011.3 mb)
[Sea-level pressure: 1010.9 mb]
Winds: from the W (260 degrees) at 16 MPH (14 knots; 7.2 m/s)
gusting to 29 MPH (25 knots; 12.9 m/s)
Visibility: 10 or more miles (16+ km)
Ceiling: at least 12,000 feet AGL
Clouds: scattered clouds at 5500 feet AGL
scattered clouds at 6000 feet AGL
Weather: no significant weather observed at this time

METAR text: KSDF 221856Z 23017G23KT 10SM FEW055 19/04 A2985 RMK AO2 PK WND 23027/1846 SLP105 T01890039
Conditions at: KSDF (LOUISVILLE , KY, US) observed 1856 UTC 22 October 2019
Temperature: 18.9°C (66°F)
Dewpoint: 3.9°C (39°F) [RH = 37%]
Pressure (altimeter): 29.85 inches Hg (1010.9 mb)
[Sea-level pressure: 1010.5 mb]
Winds: from the SW (230 degrees) at 20 MPH (17 knots; 8.7 m/s)
gusting to 26 MPH (23 knots; 11.8 m/s)
Visibility: 10 or more miles (16+ km)
Ceiling: at least 12,000 feet AGL
Clouds: few clouds at 5500 feet AGL
Weather: no significant weather observed at this time

METAR text: KSDF 221756Z 25014G24KT 10SM SCT048 18/04 A2987 RMK AO2 PK WND 23027/1726 SLP112 T01780044 10178 20133 50000
Conditions at: KSDF (LOUISVILLE , KY, US) observed 1756 UTC 22 October 2019
Temperature: 17.8°C (64°F)
Dewpoint: 4.4°C (40°F) [RH = 41%]
Pressure (altimeter): 29.87 inches Hg (1011.6 mb)
[Sea-level pressure: 1011.2 mb]
Winds: from the WSW (250 degrees) at 16 MPH (14 knots; 7.2 m/s)
gusting to 28 MPH (24 knots; 12.3 m/s)
Visibility: 10 or more miles (16+ km)
Ceiling: at least 12,000 feet AGL
Clouds: scattered clouds at 4800 feet AGL
Weather: no significant weather observed at this time

METAR text: KSDF 221656Z 23016G22KT 10SM FEW045 17/04 A2988 RMK AO2 PK WND 25026/1629 SLP114 T01720044
Conditions at: KSDF (LOUISVILLE , KY, US) observed 1656 UTC 22 October 2019
Temperature: 17.2°C (63°F)
Dewpoint: 4.4°C (40°F) [RH = 43%]
Pressure (altimeter): 29.88 inches Hg (1011.9 mb)
[Sea-level pressure: 1011.4 mb]
Winds: from the SW (230 degrees) at 18 MPH (16 knots; 8.2 m/s)
gusting to 25 MPH (22 knots; 11.3 m/s)
Visibility: 10 or more miles (16+ km)
Ceiling: at least 12,000 feet AGL
Clouds: few clouds at 4500 feet AGL
Weather: no significant weather observed at this time

METAR text: KSDF 221556Z 24015G22KT 10SM FEW040 16/04 A2987 RMK AO2 SLP113 T01610044
Conditions at: KSDF (LOUISVILLE , KY, US) observed 1556 UTC 22 October 2019
Temperature: 16.1°C (61°F)
Dewpoint: 4.4°C (40°F) [RH = 46%]
Pressure (altimeter): 29.87 inches Hg (1011.6 mb)
[Sea-level pressure: 1011.3 mb]
Winds: from the WSW (240 degrees) at 17 MPH (15 knots; 7.7 m/s)
gusting to 25 MPH (22 knots; 11.3 m/s)
Visibility: 10 or more miles (16+ km)
Ceiling: at least 12,000 feet AGL
Clouds: few clouds at 4000 feet AGL
Weather: no significant weather observed at this time

METAR text: KSDF 221456Z 25012G20KT 10SM FEW030 15/05 A2987 RMK AO2 SLP113 T01500050 50017
Conditions at: KSDF (LOUISVILLE , KY, US) observed 1456 UTC 22 October 2019
Temperature: 15.0°C (59°F)
Dewpoint: 5.0°C (41°F) [RH = 51%]
Pressure (altimeter): 29.87 inches Hg (1011.6 mb)
[Sea-level pressure: 1011.3 mb]
Winds: from the WSW (250 degrees) at 14 MPH (12 knots; 6.2 m/s)
gusting to 23 MPH (20 knots; 10.3 m/s)
Visibility: 10 or more miles (16+ km)
Ceiling: at least 12,000 feet AGL
Clouds: few clouds at 3000 feet AGL
Weather: no significant weather observed at this time

METAR text: KSDF 221356Z 25013G20KT 10SM FEW015 14/06 A2987 RMK AO2 SLP114 T01390061
Conditions at: KSDF (LOUISVILLE , KY, US) observed 1356 UTC 22 October 2019
Temperature: 13.9°C (57°F)
Dewpoint: 6.1°C (43°F) [RH = 59%]
Pressure (altimeter): 29.87 inches Hg (1011.6 mb)
[Sea-level pressure: 1011.4 mb]
Winds: from the WSW (250 degrees) at 15 MPH (13 knots; 6.7 m/s)
gusting to 23 MPH (20 knots; 10.3 m/s)
Visibility: 10 or more miles (16+ km)
Ceiling: at least 12,000 feet AGL
Clouds: few clouds at 1500 feet AGL
Weather: no significant weather observed at this time

METAR text: KSDF 221256Z 24009KT 10SM CLR 13/08 A2984 RMK AO2 SLP104 T01330083
Conditions at: KSDF (LOUISVILLE , KY, US) observed 1256 UTC 22 October 2019
Temperature: 13.3°C (56°F)
Dewpoint: 8.3°C (47°F) [RH = 72%]
Pressure (altimeter): 29.84 inches Hg (1010.6 mb)
[Sea-level pressure: 1010.4 mb]
Winds: from the WSW (240 degrees) at 10 MPH (9 knots; 4.6 m/s)
Visibility: 10 or more miles (16+ km)
Ceiling: at least 12,000 feet AGL
Clouds: sky clear below 12,000 feet AGL
Weather: no significant weather observed at this time

METAR text: KSDF 221156Z 23012G17KT 10SM CLR 13/09 A2982 RMK AO2 SLP096 70003 T01330089 10167 20133 51008
Conditions at: KSDF (LOUISVILLE , KY, US) observed 1156 UTC 22 October 2019
Temperature: 13.3°C (56°F)
Dewpoint: 8.9°C (48°F) [RH = 75%]
Pressure (altimeter): 29.82 inches Hg (1009.9 mb)
[Sea-level pressure: 1009.6 mb]
Winds: from the SW (230 degrees) at 14 MPH (12 knots; 6.2 m/s)
gusting to 20 MPH (17 knots; 8.7 m/s)
Visibility: 10 or more miles (16+ km)
Ceiling: at least 12,000 feet AGL
Clouds: sky clear below 12,000 feet AGL
Weather: no significant weather observed at this time

Forecast for: KSDF (LOUISVILLE , KY, US)
Text: KSDF 232320Z 2400/2506 17006KT P6SM SCT250
Forecast period: 0000 to 1600 UTC 24 October 2019
Forecast type: FROM: standard forecast or significant change
Winds: from the S (170 degrees) at 7 MPH (6 knots; 3.1 m/s)
Visibility: 6 or more miles 10+ km)
Ceiling: at least 12,000 feet AGL
Clouds: scattered clouds at 25000 feet AGL
Weather: no significant weather forecast for this period
Text: FM241600 22007KT P6SM BKN250
Forecast period: 1600 to 2200 UTC 24 October 2019
Forecast type: FROM: standard forecast or significant change
Winds: from the SW (220 degrees) at 8 MPH (7 knots; 3.6 m/s)
Visibility: 6 or more miles 10+ km)
Ceiling: 25000 feet AGL
Clouds: broken clouds at 25000 feet AGL
Weather: no significant weather forecast for this period
Text: FM242200 35006KT P6SM SCT100 BKN250
Forecast period: 2200 UTC 24 October 2019 to 0600 UTC 25 October 2019
Forecast type: FROM: standard forecast or significant change
Winds: from the N (350 degrees) at 7 MPH (6 knots; 3.1 m/s)
Visibility: 6 or more miles 10+ km)
Ceiling: 25000 feet AGL
Clouds: scattered clouds at 10000 feet AGL
broken clouds at 25000 feet AGL
Weather: no significant weather forecast for this period